Logo AVAMET
Benvolgut visitant, si us plau, ingressa Recuperar contrasenya
AVAMET paisatges

Inforatge Xeraco Ajuntament

Dades diàries. Acumulats / Últims 30 dies disponibles

Data Temperatura (°C) Humitat rel. (%) Pressió rel. (hPa) Vent (km/h) Precipitació
Mínima Mitjana Màxima Amplitud
tèrmica
Mínima Mitjana Màxima Mínima Mitjana Màxima Predom. Mitjana Ràfega
màxima
Total
(mm)
Índex-n
Mínima Mitjana Màxima Mínima Mitjana Màxima n
0 a 1
P0 max
mm 5'
Dades mensuals acumulades fins l'últim dia disponible
01/2021 1,9 5,9 10,8 9,2 8,5 13,0 21,6 19,7 24 62 95 1.006 1.018 1.030   6,2 46,7 70,4
Dades anuals acumulades fins l'últim dia disponible
2021 1,9 5,9 10,8 9,2 8,5 13,0 21,6 19,7 24 62 95 1.006 1.018 1.030   6,2 46,7 70,4
Últims 30 dies disponibles
17-01-2021 8,7     15,2     21,6 12,9 24 34 47 1.024 1.026 1.029 W 5,8 32,2 0,0
16-01-2021 6,6     11,5     15,8 9,2 33 50 68 1.024 1.027 1.029 SW 1,6 20,9 0,0
15-01-2021 10,8     13,2     17,2 6,4 38 48 57 1.023 1.024 1.026 W 9,5 33,8 0,0
14-01-2021 4,6     9,7     15,0 10,4 41 61 75 1.023 1.025 1.028 ENE 1,0 24,1 0,0
13-01-2021 4,1     9,3     14,7 10,6 39 55 72 1.028 1.028 1.030 W 1,8 24,1 0,0
12-01-2021 5,0     8,5     13,9 8,9 30 51 66 1.026 1.028 1.029 SW 5,5 24,1 0,0
11-01-2021 5,7     7,3     10,2 4,5 65 79 92 1.018 1.021 1.027 WSW 2,7 24,1 0,0
10-01-2021 4,3     7,3     9,4 5,1 70 82 92 1.009 1.013 1.018 NW 2,1 16,1 0,2
09-01-2021 5,6     6,8     8,5 2,9 86 91 95 1.006 1.007 1.009 W 6,8 38,6 15,2 0,37 0,40
08-01-2021 5,9     7,4     8,9 3,0 81 90 95 1.009 1.012 1.015 ENE 12,1 45,1 30,2 0,37 1,00
07-01-2021 5,8     6,9     9,1 3,3 76 89 95 1.012 1.014 1.016 NW 4,3 30,6 24,8 0,37 0,60
06-01-2021 1,9     7,0     11,2 9,3 49 65 78 1.013 1.015 1.017 ENE 1,0 17,7 0,0
05-01-2021 5,7     8,3     13,1 7,4 32 53 66 1.011 1.013 1.014 W 5,6 38,6 0,0
04-01-2021 5,4     9,4     12,6 7,2 44 54 67 1.011 1.013 1.014 W 9,0 45,1 0,0
03-01-2021 5,6     9,1     13,4 7,8 37 45 51 1.012 1.014 1.015 W 12,4 43,5 0,0
02-01-2021 6,4     8,7     11,7 5,3 41 49 57 1.009 1.010 1.013 W 14,3 46,7 0,0
01-01-2021 8,9     11,0     14,4 5,5 37 55 69 1.006 1.008 1.011 W 9,3 45,1 0,0
31-12-2020 9,3     11,9     15,8 6,5 39 48 57 1.011 1.015 1.019 OSO 10,3 41,8 0,0
30-12-2020 8,4     10,9     14,4 6,0 39 48 55 1.010 1.015 1.019 W 14,2 45,1 0,0
29-12-2020 9,8     11,6     14,3 4,5 45 54 60 1.005 1.007 1.010 W 14,5 49,9 0,0
28-12-2020 11,4     13,8     16,5 5,1 23 43 64 998 1.002 1.006 WSW 14,3 74,0 0,0
27-12-2020 5,0     12,5     18,7 13,7 23 39 61 1.003 1.014 1.023 WSW 5,0 48,3 0,0
26-12-2020 6,9     9,8     14,6 7,7 25 39 46 1.024 1.026 1.028 W 7,7 30,6 0,0
25-12-2020 9,0     12,2     14,3 5,3 24 55 90 1.022 1.024 1.028 NW 8,7 49,9 0,0
24-12-2020 12,1     14,8     17,9 5,8 58 72 86 1.022 1.023 1.024 W 1,9 22,5 0,0
23-12-2020 9,6     15,2     20,9 11,3 50 75 95 1.022 1.024 1.027 W 3,5 40,2 0,0
22-12-2020 9,7     13,0     17,2 7,5 69 83 93 1.027 1.028 1.030 ENE 0,6 12,9 0,0
21-12-2020 8,5     13,3     18,8 10,3 56 75 87 1.027 1.029 1.030 SE 0,5 11,3 0,0
20-12-2020 10,2     14,8     19,4 9,2 51 70 84 1.022 1.024 1.029 W 3,2 29,0 0,0
19-12-2020 8,5     13,3     17,7 9,2 64 80 94 1.020 1.022 1.023 W 1,0 22,5 0,0
Últims 13 mesos disponibles
12/2020 5,0 10,0 16,2 13,6 12,7 17,4 23,2 18,2 39 62 85 999 1.016 1.029 W 7,7 74,0 8,4
11/2020 8,4 12,9 17,7 16,2 16,2 20,0 25,3 16,9 72 83 96 1.007 1.023 1.030 ENE 2,9 62,8 111,4
10/2020 12,2 15,7 18,9 19,9 19,8 24,3 32,5 20,3 43 62 86 999 1.018 1.027 W 4,8 69,2 6,8
09/2020 15,5 20,2 22,9 24,1 24,0 28,2 32,2 16,7 38 68 80 1.012 1.018 1.024 ENE 4,0 51,5 36,0
08/2020 18,3 23,7 25,4 27,7 25,6 32,3 39,1 20,8 44 72 83 1.005 1.015 1.020 ENE 4,9 40,2 39,0
07/2020 20,7 23,4 25,6 26,9 27,8 30,8 37,1 16,4 57 75 83 1.012 1.017 1.021 ENE 5,1 40,2 6,0
06/2020 16,4 19,9 23,7 24,0 21,4 28,5 33,4 17,0 42 71 87 1.006 1.015 1.022 ENE 5,6 46,7 63,4
05/2020 12,9 17,3 20,7 21,6 20,6 25,9 32,6 19,7 47 70 83 1.006 1.018 1.028 ENE 4,8 54,7 50,4
04/2020 10,6 13,5 19,4 16,4 14,6 19,8 27,8 17,2 43 78 93 1.007 1.017 1.027 W 5,0 48,3 58,6
03/2020 7,4 11,9 18,3 14,9 11,8 18,4 24,9 17,5 41 72 94 1.008 1.018 1.028 W 8,6 91,7 112,2
02/2020 7,5 11,2 17,2 15,7 14,3 20,5 27,2 19,7 38 69 89 1.015 1.026 1.034 W 5,7 57,9 2,0
01/2020 3,8 8,9 16,8 12,3 12,4 16,1 22,5 18,7 54 75 97 1.016 1.026 1.034 W 7,2 88,5 134,4
12/2019 6,1 12,0 20,2 15,0 14,0 18,5 26,3 20,2 47 69 91 1.003 1.020 1.034 W 10,0 95,0 214,0
Tots els anys disponibles
2020 3,8 15,7 25,6 19,4 11,8 23,5 39,1 35,3 38 71 97 999 1.019 1.034 ENE 5,5 91,7 628,6
2019 4,2 15,6 27,3 19,2 11,6 22,9 39,2 35,0 30 66 94 996 1.018 1.035 SSE 7,2 95,0 597,8
2018 4,6 15,8 27,7 19,0 8,4 22,6 37,1 32,5 35 67 95 994 1.017 1.036 SSE 6,5 76,0 924,6
2017 1,4 16,3 26,9 19,8 9,6 23,3 39,0 37,6 33 68 93 1.002 1.017 1.038 SE 0,0 97,0 399,0
2016 4,8 16,0 25,6 19,4 12,4 22,8 39,6 34,8 29 66 93 993 1.017 1.036 93,0 543,9
Temperatura (°C)
Humitat relativa (%)
Velocitat del vent i ràfega màxima (km/h)
Direcció del vent (°)
Pressió (hPa)
Precipitació (mm)
Nota sobre les dades: s'avisa a l'usuari de la provisionalitat i no oficialitat d'aquestes dades
Logo AVAMET blanc
Web allotjada a Sollutia
Llicència de Creative CommonsLa web d'AVAMET i els seus continguts estan subjectes a una llicència de
Reconeixement - No Comercial - Compartir igual
Avís legal - Política de privacitat - Política de cookies
NOVES ESTACIONS: Rossell - carrer Sant Vicent (Soci), Onda - CR Cota 220 (Soci), Artana (Ajuntament/Soci), Sax (Soci), Benicarló - Sant Gregori (Soci), Riba-roja de Túria - la Reva (Soci), Castielfabib - Arroyo Cerezo (Pròpia d'AVAMET), Tavernes de la Valldigna - Ull del Bou/Cambro (Soci), Chella - Casa Conde (Soci), El Genovés (Inforatge) - - -